createdAt,value
2023-02-09T00:01:32.614Z,27.93
2023-02-09T00:04:02.798Z,35.27
2023-02-09T00:06:33.349Z,41.80
2023-02-09T00:09:02.529Z,32.67
2023-02-09T00:11:50.240Z,41.33
2023-02-09T00:14:21.752Z,32.73
2023-02-09T00:16:51.163Z,39.10
2023-02-09T00:19:20.256Z,31.40
2023-02-09T00:21:50.178Z,30.20
2023-02-09T00:24:18.396Z,31.60
2023-02-09T00:26:47.270Z,36.87
2023-02-09T00:29:16.252Z,39.53
2023-02-09T00:31:44.674Z,38.20
2023-02-09T00:34:16.452Z,40.30
2023-02-09T00:36:44.552Z,34.87
2023-02-09T00:39:14.067Z,34.17
2023-02-09T00:41:59.490Z,36.77
2023-02-09T00:44:28.026Z,42.13
2023-02-09T00:46:56.923Z,41.33
2023-02-09T00:49:25.615Z,38.27
2023-02-09T00:51:53.927Z,39.33
2023-02-09T00:54:23.732Z,45.33
2023-02-09T00:56:51.973Z,33.47
2023-02-09T00:59:20.032Z,40.43
2023-02-09T01:01:48.728Z,33.87
2023-02-09T01:04:16.846Z,39.47
2023-02-09T01:06:45.342Z,40.93
2023-02-09T01:09:13.430Z,37.33
2023-02-09T01:11:43.335Z,37.63
2023-02-09T01:14:12.015Z,44.30
2023-02-09T01:16:40.417Z,35.53
2023-02-09T01:19:08.513Z,38.73
2023-02-09T01:21:36.853Z,39.27
2023-02-09T01:24:05.325Z,29.03
2023-02-09T01:26:33.463Z,37.63
2023-02-09T01:29:02.931Z,36.40
2023-02-09T01:31:33.910Z,44.93
2023-02-09T01:34:04.860Z,34.93
2023-02-09T01:36:34.595Z,32.90
2023-02-09T01:39:04.792Z,33.70
2023-02-09T01:41:34.521Z,37.43
2023-02-09T01:44:07.631Z,39.57
2023-02-09T01:46:37.770Z,36.20
2023-02-09T01:49:09.606Z,47.40
2023-02-09T01:51:43.580Z,29.67
2023-02-09T01:54:17.934Z,41.50
2023-02-09T01:56:49.829Z,27.17
2023-02-09T01:59:20.243Z,32.37
2023-02-09T02:01:48.926Z,34.50
2023-02-09T02:04:17.232Z,36.23
2023-02-09T02:06:45.523Z,41.37
2023-02-09T02:09:16.661Z,39.53
2023-02-09T02:11:48.872Z,43.40
2023-02-09T02:14:31.035Z,33.73
2023-02-09T02:17:10.430Z,40.83
2023-02-09T02:20:02.135Z,40.03
2023-02-09T02:22:45.368Z,35.20
2023-02-09T02:25:47.002Z,42.40
2023-02-09T02:28:40.276Z,35.33
2023-02-09T02:31:47.994Z,43.90
2023-02-09T02:34:25.464Z,39.60
2023-02-09T02:37:07.753Z,44.03
2023-02-09T02:39:42.120Z,35.47
2023-02-09T02:42:32.569Z,28.33
2023-02-09T02:45:07.069Z,30.83
2023-02-09T02:47:37.964Z,32.00
2023-02-09T02:50:13.040Z,37.27
2023-02-09T02:52:44.798Z,27.47
2023-02-09T02:55:17.918Z,32.50
2023-02-09T02:57:51.017Z,33.90
2023-02-09T03:00:24.048Z,34.57
2023-02-09T03:02:55.570Z,34.33
2023-02-09T03:05:27.463Z,27.17
2023-02-09T03:07:55.596Z,32.67
2023-02-09T03:10:30.141Z,36.13
2023-02-09T03:13:09.355Z,37.23
2023-02-09T03:15:48.903Z,35.27
2023-02-09T03:18:26.538Z,41.10
2023-02-09T03:20:59.820Z,37.33
2023-02-09T03:23:34.939Z,40.17
2023-02-09T03:26:09.346Z,40.70
2023-02-09T03:28:40.882Z,35.10
2023-02-09T03:31:10.563Z,41.43
2023-02-09T03:33:40.449Z,47.93
2023-02-09T03:36:15.928Z,17.23
2023-02-09T03:38:44.022Z,31.37
2023-02-09T03:41:12.711Z,31.50
2023-02-09T03:43:58.309Z,31.30
2023-02-09T03:46:26.672Z,36.67
2023-02-09T03:48:54.780Z,37.13
2023-02-09T03:51:24.572Z,28.47
2023-02-09T03:53:52.685Z,32.23
2023-02-09T03:56:25.200Z,30.50
2023-02-09T03:58:53.791Z,31.17
2023-02-09T04:01:21.946Z,38.13
2023-02-09T04:03:50.263Z,32.97
2023-02-09T04:06:18.673Z,46.23
2023-02-09T04:08:48.305Z,28.57
2023-02-09T04:11:16.784Z,26.33
2023-02-09T04:13:44.861Z,29.73
2023-02-09T04:16:13.309Z,33.83
2023-02-09T04:18:41.454Z,28.20
2023-02-09T04:21:09.770Z,29.17
2023-02-09T04:23:37.948Z,30.73
2023-02-09T04:26:08.208Z,28.17
2023-02-09T04:28:36.526Z,38.83
2023-02-09T04:31:05.303Z,42.97
2023-02-09T04:33:33.434Z,34.13
2023-02-09T04:36:01.568Z,36.27
2023-02-09T04:38:30.231Z,40.63
2023-02-09T04:41:01.204Z,37.27
2023-02-09T04:43:31.072Z,35.40
2023-02-09T04:45:59.271Z,22.57
2023-02-09T04:48:28.904Z,30.20
2023-02-09T04:50:57.923Z,33.87
2023-02-09T04:53:26.075Z,35.10
2023-02-09T04:55:54.358Z,28.53
2023-02-09T04:58:40.449Z,40.60
2023-02-09T05:01:13.466Z,31.83
2023-02-09T05:03:42.612Z,39.83
2023-02-09T05:06:10.961Z,32.90
2023-02-09T05:08:39.103Z,33.37
2023-02-09T05:11:07.321Z,35.53
2023-02-09T05:13:35.677Z,32.67
2023-02-09T05:16:07.507Z,30.77
2023-02-09T05:18:37.370Z,27.97
2023-02-09T05:21:05.740Z,33.80
2023-02-09T05:23:34.774Z,35.50
2023-02-09T05:26:02.864Z,36.73
2023-02-09T05:28:31.395Z,33.53
2023-02-09T05:30:59.509Z,27.93
2023-02-09T05:33:28.310Z,28.90
2023-02-09T05:35:57.838Z,33.80
2023-02-09T05:38:25.980Z,32.23
2023-02-09T05:40:54.369Z,29.50
2023-02-09T05:43:22.466Z,26.10
2023-02-09T05:45:50.920Z,36.50
2023-02-09T05:48:19.035Z,33.47
2023-02-09T05:50:48.804Z,26.67
2023-02-09T05:53:18.278Z,22.17
2023-02-09T05:55:47.847Z,35.30
2023-02-09T05:58:15.960Z,26.37
2023-02-09T06:00:44.657Z,24.60
2023-02-09T06:03:13.211Z,27.47
2023-02-09T06:05:41.316Z,41.77
2023-02-09T06:08:09.919Z,30.27
2023-02-09T06:10:39.787Z,35.20
2023-02-09T06:13:07.880Z,26.90
2023-02-09T06:15:36.344Z,29.57
2023-02-09T06:18:04.900Z,30.70
2023-02-09T06:20:33.113Z,30.43
2023-02-09T06:23:01.221Z,34.63
2023-02-09T06:25:29.384Z,29.90
2023-02-09T06:27:59.237Z,29.63
2023-02-09T06:30:27.682Z,35.63
2023-02-09T06:32:55.761Z,43.77
2023-02-09T06:35:23.954Z,35.87
2023-02-09T06:37:52.256Z,49.47
2023-02-09T06:40:21.274Z,39.47
2023-02-09T06:42:49.703Z,38.77
2023-02-09T06:45:20.053Z,30.70
2023-02-09T06:47:48.154Z,20.87
2023-02-09T06:50:20.158Z,32.47
2023-02-09T06:52:48.633Z,24.57
2023-02-09T06:55:16.733Z,25.23
2023-02-09T06:57:45.269Z,29.90
2023-02-09T07:00:15.502Z,38.43
2023-02-09T07:02:45.960Z,27.77
2023-02-09T07:05:15.288Z,38.73
2023-02-09T07:07:44.318Z,23.63
2023-02-09T07:10:14.655Z,28.77
2023-02-09T07:12:43.833Z,35.20
2023-02-09T07:15:13.516Z,29.93
2023-02-09T07:17:42.363Z,32.77
2023-02-09T07:20:13.954Z,33.17
2023-02-09T07:22:42.238Z,35.93
2023-02-09T07:25:10.831Z,35.77
2023-02-09T07:27:39.085Z,40.83
2023-02-09T07:30:07.882Z,41.23
2023-02-09T07:32:37.980Z,49.23
2023-02-09T07:35:06.691Z,41.87
2023-02-09T07:37:37.518Z,46.67
2023-02-09T07:40:05.879Z,49.30
2023-02-09T07:42:34.278Z,50.20
2023-02-09T07:45:02.411Z,48.63
2023-02-09T07:47:30.517Z,44.50
2023-02-09T07:49:58.804Z,39.93
2023-02-09T07:52:26.912Z,32.90
2023-02-09T07:54:56.379Z,27.77
2023-02-09T07:57:24.566Z,26.83
2023-02-09T07:59:52.645Z,27.03
2023-02-09T08:02:29.396Z,27.80
2023-02-09T08:05:01.446Z,20.87
2023-02-09T08:07:29.976Z,19.97
2023-02-09T08:09:59.480Z,20.37
2023-02-09T08:12:44.469Z,21.17
2023-02-09T08:15:15.289Z,23.40
2023-02-09T08:17:44.036Z,20.00
2023-02-09T08:20:15.838Z,18.33
2023-02-09T08:22:47.924Z,19.67
2023-02-09T08:25:18.985Z,21.27
2023-02-09T08:27:48.116Z,25.63
2023-02-09T08:30:18.271Z,22.13
2023-02-09T08:32:46.406Z,23.57
2023-02-09T08:35:15.189Z,19.80
2023-02-09T08:37:43.565Z,21.57
2023-02-09T08:40:15.070Z,21.00
2023-02-09T08:42:44.599Z,27.20
2023-02-09T08:45:12.913Z,21.80
2023-02-09T08:47:41.267Z,25.07
2023-02-09T08:50:10.628Z,22.83
2023-02-09T08:52:38.773Z,17.37
2023-02-09T08:55:07.808Z,14.40
2023-02-09T08:57:43.880Z,22.70
2023-02-09T09:00:15.930Z,16.15
2023-02-09T09:02:44.049Z,18.10
2023-02-09T09:05:12.448Z,12.52
2023-02-09T09:07:40.560Z,11.87
2023-02-09T09:10:09.892Z,16.67
2023-02-09T09:12:38.845Z,14.60
2023-02-09T09:15:07.297Z,11.52
2023-02-09T09:17:36.824Z,7.53
2023-02-09T09:20:07.054Z,6.95
2023-02-09T09:22:35.179Z,8.82
2023-02-09T09:25:03.463Z,10.75
2023-02-09T09:27:32.775Z,10.55
2023-02-09T09:30:00.899Z,8.32
2023-02-09T09:32:29.604Z,5.87
2023-02-09T09:35:00.295Z,5.60
2023-02-09T09:37:28.458Z,5.55
2023-02-09T09:39:57.131Z,11.85
2023-02-09T09:42:28.904Z,10.18
2023-02-09T09:44:57.284Z,16.33
2023-02-09T09:47:38.213Z,14.75
2023-02-09T09:50:14.190Z,3.78
2023-02-09T09:52:44.483Z,5.57
2023-02-09T09:55:23.355Z,11.73
2023-02-09T09:57:54.129Z,13.27
2023-02-09T10:00:24.924Z,11.52
2023-02-09T10:02:53.449Z,9.68
2023-02-09T10:05:25.705Z,13.60
2023-02-09T10:08:00.435Z,13.68
2023-02-09T10:10:39.140Z,9.88
2023-02-09T10:13:14.703Z,9.60
2023-02-09T10:15:43.204Z,15.55
2023-02-09T10:18:17.212Z,9.98
2023-02-09T10:20:49.220Z,13.25
2023-02-09T10:23:23.725Z,14.20
2023-02-09T10:25:59.875Z,9.73
2023-02-09T10:28:30.924Z,13.77
2023-02-09T10:31:02.026Z,6.85
2023-02-09T10:33:38.177Z,9.60
2023-02-09T10:36:21.011Z,8.90
2023-02-09T10:38:49.081Z,11.32
2023-02-09T10:41:18.023Z,7.65
2023-02-09T10:43:53.868Z,10.15
2023-02-09T10:46:22.933Z,12.30
2023-02-09T10:48:51.112Z,7.82
2023-02-09T10:51:29.382Z,5.13
2023-02-09T10:54:03.526Z,8.13
2023-02-09T10:56:43.887Z,10.48
2023-02-09T10:59:18.352Z,9.32
2023-02-09T11:01:56.100Z,8.70
2023-02-09T11:04:25.886Z,10.20
2023-02-09T11:06:58.738Z,9.25
2023-02-09T11:09:30.720Z,8.98
2023-02-09T11:11:59.111Z,11.13
2023-02-09T11:14:27.305Z,11.93
2023-02-09T11:17:13.592Z,7.65
2023-02-09T11:20:17.410Z,9.48
2023-02-09T11:23:03.585Z,12.45
2023-02-09T11:25:38.319Z,7.60
2023-02-09T11:28:26.032Z,10.63
2023-02-09T11:31:48.019Z,9.73
2023-02-09T11:34:54.390Z,13.75
2023-02-09T11:37:35.815Z,9.63
2023-02-09T11:40:21.185Z,8.95
2023-02-09T11:42:58.831Z,6.53
2023-02-09T11:45:33.602Z,11.20
2023-02-09T11:48:10.088Z,11.10
2023-02-09T11:50:50.696Z,5.88
2023-02-09T11:53:27.718Z,6.35
2023-02-09T11:55:59.692Z,2.25
2023-02-09T11:58:55.222Z,7.20
2023-02-09T12:01:38.242Z,8.93
2023-02-09T12:04:16.544Z,7.82
2023-02-09T12:06:47.931Z,7.38
2023-02-09T12:09:27.067Z,6.95
2023-02-09T12:12:06.272Z,10.48
2023-02-09T12:14:46.669Z,7.63
2023-02-09T12:17:18.778Z,7.80
2023-02-09T12:19:57.480Z,11.23
2023-02-09T12:22:58.508Z,11.88
2023-02-09T12:25:55.410Z,5.95
2023-02-09T12:28:47.790Z,8.43
2023-02-09T12:31:25.748Z,5.20
2023-02-09T12:34:21.480Z,7.68
2023-02-09T12:37:10.552Z,5.85
2023-02-09T12:39:38.756Z,4.93
2023-02-09T12:42:29.567Z,7.32
2023-02-09T12:45:02.517Z,9.77
2023-02-09T12:47:55.995Z,8.40
2023-02-09T12:50:37.029Z,11.48
2023-02-09T12:53:41.952Z,9.05
2023-02-09T12:56:32.238Z,2.75
2023-02-09T12:59:20.719Z,9.48
2023-02-09T13:02:13.788Z,6.70
2023-02-09T13:04:50.844Z,5.82
2023-02-09T13:07:33.956Z,8.38
2023-02-09T13:10:09.121Z,11.13
2023-02-09T13:12:43.879Z,3.75
2023-02-09T13:15:16.095Z,7.35
2023-02-09T13:17:58.573Z,9.50
2023-02-09T13:20:47.447Z,8.02
2023-02-09T13:23:24.085Z,5.32
2023-02-09T13:26:02.080Z,6.20
2023-02-09T13:28:30.729Z,8.27
2023-02-09T13:30:58.957Z,6.80
2023-02-09T13:33:38.898Z,8.35
2023-02-09T13:36:25.137Z,8.07
2023-02-09T13:38:53.845Z,6.93
2023-02-09T13:41:28.530Z,8.90
2023-02-09T13:43:57.168Z,4.00
2023-02-09T13:46:27.740Z,8.13
2023-02-09T13:49:12.169Z,11.05
2023-02-09T13:51:40.670Z,9.00
2023-02-09T13:54:09.118Z,6.35
2023-02-09T13:56:40.084Z,8.65
2023-02-09T13:59:08.542Z,8.52
2023-02-09T14:01:38.554Z,8.95
2023-02-09T14:04:13.034Z,10.10
2023-02-09T14:06:44.607Z,8.45
2023-02-09T14:09:17.090Z,10.52
2023-02-09T14:11:49.134Z,8.25
2023-02-09T14:14:21.411Z,4.38
2023-02-09T14:16:53.832Z,5.68
2023-02-09T14:19:28.870Z,3.22
2023-02-09T14:21:57.031Z,10.75
2023-02-09T14:24:25.993Z,10.10
2023-02-09T14:26:56.364Z,9.68
2023-02-09T14:29:26.851Z,9.40
2023-02-09T14:31:57.179Z,5.45
2023-02-09T14:34:31.400Z,6.85
2023-02-09T14:37:02.818Z,12.07
2023-02-09T14:39:32.167Z,7.38
2023-02-09T14:42:18.501Z,10.32
2023-02-09T14:44:48.622Z,3.30
2023-02-09T14:47:31.235Z,16.02
2023-02-09T14:50:01.298Z,6.07
2023-02-09T14:52:32.949Z,9.73
2023-02-09T14:55:05.005Z,10.25
2023-02-09T14:57:36.255Z,7.65
2023-02-09T15:00:16.809Z,12.00
2023-02-09T15:02:45.921Z,9.25
2023-02-09T15:05:15.801Z,8.23
2023-02-09T15:07:47.359Z,11.27
2023-02-09T15:10:22.716Z,9.52
2023-02-09T15:12:51.439Z,9.05
2023-02-09T15:15:21.038Z,7.30
2023-02-09T15:17:49.323Z,7.55
2023-02-09T15:20:21.415Z,3.15
2023-02-09T15:22:49.884Z,9.23
2023-02-09T15:25:18.690Z,10.45
2023-02-09T15:27:51.862Z,10.88
2023-02-09T15:30:22.805Z,11.73
2023-02-09T15:32:51.175Z,11.80
2023-02-09T15:35:23.196Z,14.77
2023-02-09T15:37:55.188Z,8.80
2023-02-09T15:40:45.659Z,12.45
2023-02-09T15:43:33.404Z,12.75
2023-02-09T15:46:19.516Z,14.00
2023-02-09T15:48:48.936Z,7.95
2023-02-09T15:51:18.895Z,10.38
2023-02-09T15:53:47.767Z,10.18
2023-02-09T15:56:16.364Z,10.82
2023-02-09T15:58:48.652Z,10.65
2023-02-09T16:01:18.732Z,11.73
2023-02-09T16:03:47.353Z,8.23
2023-02-09T16:06:20.355Z,8.90
2023-02-09T16:08:50.262Z,16.70
2023-02-09T16:11:21.738Z,1.63
2023-02-09T16:13:50.086Z,7.75
2023-02-09T16:16:18.529Z,11.32
2023-02-09T16:18:46.981Z,9.80
2023-02-09T16:21:24.740Z,13.77
2023-02-09T16:23:55.590Z,11.45
2023-02-09T16:26:24.817Z,15.68
2023-02-09T16:28:54.070Z,7.75
2023-02-09T16:31:23.059Z,9.40
2023-02-09T16:33:51.504Z,11.00
2023-02-09T16:36:23.650Z,8.30
2023-02-09T16:38:52.500Z,8.60
2023-02-09T16:41:39.389Z,12.52
2023-02-09T16:44:17.550Z,11.07
2023-02-09T16:46:47.053Z,9.45
2023-02-09T16:49:32.930Z,8.68
2023-02-09T16:52:07.815Z,8.38
2023-02-09T16:54:42.659Z,10.85
2023-02-09T16:57:15.707Z,15.85
2023-02-09T16:59:44.264Z,8.63
2023-02-09T17:02:37.681Z,9.27
2023-02-09T17:05:18.551Z,11.15
2023-02-09T17:07:54.952Z,13.93
2023-02-09T17:10:26.592Z,9.88
2023-02-09T17:12:54.827Z,13.43
2023-02-09T17:15:30.747Z,10.30
2023-02-09T17:18:02.810Z,9.40
2023-02-09T17:20:36.983Z,10.20
2023-02-09T17:23:06.990Z,12.38
2023-02-09T17:25:35.425Z,9.15
2023-02-09T17:28:03.589Z,12.55
2023-02-09T17:30:33.707Z,11.65
2023-02-09T17:33:03.812Z,8.88
2023-02-09T17:36:03.564Z,11.38
2023-02-09T17:38:29.280Z,13.50
2023-02-09T17:40:59.515Z,12.90
2023-02-09T17:43:28.248Z,11.80
2023-02-09T17:45:56.431Z,8.52
2023-02-09T17:48:25.052Z,6.70
2023-02-09T17:50:57.975Z,11.95
2023-02-09T17:53:33.020Z,3.97
2023-02-09T17:56:02.790Z,13.52
2023-02-09T17:58:30.957Z,11.32
2023-02-09T18:00:59.133Z,12.10
2023-02-09T18:03:27.313Z,3.42
2023-02-09T18:05:58.819Z,11.20
2023-02-09T18:08:28.516Z,6.40
2023-02-09T18:10:59.071Z,10.73
2023-02-09T18:13:27.694Z,8.35
2023-02-09T18:15:56.560Z,8.10
2023-02-09T18:18:24.974Z,8.32
2023-02-09T18:20:53.078Z,8.15
2023-02-09T18:23:23.267Z,9.20
2023-02-09T18:25:52.819Z,9.63
2023-02-09T18:28:21.461Z,8.00
2023-02-09T18:30:49.658Z,12.15
2023-02-09T18:33:17.887Z,9.30
2023-02-09T18:35:46.820Z,14.57
2023-02-09T18:38:16.124Z,9.13
2023-02-09T18:40:44.340Z,20.42
2023-02-09T18:43:15.841Z,12.77
2023-02-09T18:45:44.367Z,13.07
2023-02-09T18:48:12.843Z,12.70
2023-02-09T18:50:41.604Z,7.75
2023-02-09T18:53:11.770Z,6.70
2023-02-09T18:55:39.931Z,12.52
2023-02-09T18:58:09.476Z,4.70
2023-02-09T19:00:39.069Z,9.98
2023-02-09T19:03:07.224Z,13.07
2023-02-09T19:05:35.888Z,4.45
2023-02-09T19:08:04.248Z,8.35
2023-02-09T19:10:33.289Z,11.00
2023-02-09T19:13:03.067Z,9.15
2023-02-09T19:15:32.792Z,9.55
2023-02-09T19:18:02.374Z,9.40
2023-02-09T19:20:31.804Z,13.00
2023-02-09T19:23:00.247Z,13.35
2023-02-09T19:25:30.022Z,7.00
2023-02-09T19:27:58.286Z,10.73
2023-02-09T19:30:27.481Z,8.05
2023-02-09T19:32:57.697Z,10.95
2023-02-09T19:35:29.331Z,9.52
2023-02-09T19:37:59.150Z,4.03
2023-02-09T19:40:36.307Z,8.35
2023-02-09T19:43:05.972Z,12.02
2023-02-09T19:45:37.844Z,12.43
2023-02-09T19:48:06.942Z,14.50
2023-02-09T19:50:38.075Z,8.77
2023-02-09T19:53:07.359Z,8.13
2023-02-09T19:55:35.661Z,15.32
2023-02-09T19:58:04.422Z,8.02
2023-02-09T20:00:33.185Z,7.28
2023-02-09T20:03:01.833Z,13.10
2023-02-09T20:05:30.319Z,10.20
2023-02-09T20:07:59.938Z,9.68
2023-02-09T20:10:28.112Z,8.25
2023-02-09T20:12:56.230Z,6.10
2023-02-09T20:15:24.314Z,10.07
2023-02-09T20:17:52.525Z,8.60
2023-02-09T20:20:20.833Z,13.02
2023-02-09T20:22:51.201Z,11.82
2023-02-09T20:25:20.788Z,6.07
2023-02-09T20:27:50.799Z,5.63
2023-02-09T20:30:19.554Z,9.25
2023-02-09T20:32:47.714Z,7.95
2023-02-09T20:35:15.909Z,11.40
2023-02-09T20:37:44.572Z,8.98
2023-02-09T20:40:13.876Z,15.73
2023-02-09T20:43:00.993Z,10.07
2023-02-09T20:45:46.865Z,12.60
2023-02-09T20:48:14.995Z,16.05
2023-02-09T20:50:45.327Z,14.13
2023-02-09T20:53:13.922Z,11.00
2023-02-09T20:55:42.913Z,7.07
2023-02-09T20:58:13.714Z,14.00
2023-02-09T21:00:43.042Z,11.05
2023-02-09T21:03:11.563Z,4.90
2023-02-09T21:05:40.044Z,9.48
2023-02-09T21:08:09.631Z,6.38
2023-02-09T21:10:38.598Z,6.45
2023-02-09T21:13:08.082Z,12.23
2023-02-09T21:15:41.093Z,9.60
2023-02-09T21:18:09.291Z,11.68
2023-02-09T21:20:37.423Z,8.60
2023-02-09T21:23:05.873Z,12.95
2023-02-09T21:25:33.965Z,12.02
2023-02-09T21:28:02.601Z,12.93
2023-02-09T21:30:31.028Z,15.02
2023-02-09T21:33:01.149Z,11.82
2023-02-09T21:35:29.689Z,15.15
2023-02-09T21:37:58.321Z,10.35
2023-02-09T21:40:26.403Z,10.27
2023-02-09T21:42:54.782Z,11.85
2023-02-09T21:45:22.867Z,8.32
2023-02-09T21:47:50.971Z,9.50
2023-02-09T21:50:21.260Z,7.60
2023-02-09T21:52:50.521Z,12.30
2023-02-09T21:55:18.771Z,12.15
2023-02-09T21:57:46.860Z,13.20
2023-02-09T22:00:16.104Z,9.90
2023-02-09T22:02:44.887Z,11.82
2023-02-09T22:05:13.449Z,11.32
2023-02-09T22:07:45.597Z,16.85
2023-02-09T22:10:14.091Z,11.43
2023-02-09T22:12:42.195Z,11.88
2023-02-09T22:15:11.608Z,12.80
2023-02-09T22:17:40.545Z,13.02
2023-02-09T22:20:10.418Z,12.82
2023-02-09T22:22:39.883Z,14.25
2023-02-09T22:25:09.951Z,11.75
2023-02-09T22:27:38.094Z,14.43
2023-02-09T22:30:06.683Z,12.45
2023-02-09T22:32:35.051Z,12.60
2023-02-09T22:35:03.170Z,9.35
2023-02-09T22:37:31.382Z,11.50
2023-02-09T22:39:59.496Z,5.57
2023-02-09T22:42:29.029Z,12.63
2023-02-09T22:44:57.136Z,13.25
2023-02-09T22:47:25.317Z,10.65
2023-02-09T22:49:53.710Z,13.15
2023-02-09T22:52:21.865Z,12.90
2023-02-09T22:54:50.299Z,17.13
2023-02-09T22:57:18.417Z,6.80
2023-02-09T22:59:47.867Z,13.40
2023-02-09T23:02:16.701Z,12.15
2023-02-09T23:04:44.782Z,11.20
2023-02-09T23:07:12.914Z,15.65
2023-02-09T23:09:41.363Z,16.13
2023-02-09T23:12:09.767Z,14.15
2023-02-09T23:14:38.294Z,15.15
2023-02-09T23:17:07.898Z,16.77
2023-02-09T23:19:36.016Z,11.95
2023-02-09T23:22:04.134Z,16.25
2023-02-09T23:24:32.515Z,9.73
2023-02-09T23:27:00.595Z,10.88
2023-02-09T23:29:30.614Z,16.08
2023-02-09T23:31:59.333Z,16.20
2023-02-09T23:34:28.831Z,21.58
2023-02-09T23:37:04.979Z,13.57
2023-02-09T23:39:41.500Z,20.88
2023-02-09T23:42:09.591Z,20.92
2023-02-09T23:44:37.695Z,24.17
2023-02-09T23:47:06.188Z,14.57
2023-02-09T23:49:35.720Z,26.15
2023-02-09T23:52:03.827Z,17.00
2023-02-09T23:54:31.951Z,22.50
2023-02-09T23:57:00.114Z,27.58
2023-02-09T23:59:28.280Z,19.85
